Time;durP1;ratioP1;P1;durP2;ratioP2;P2;SDS_P1;SDS_P2;PMS_P1;PMS_P2;Temp;Humidity;BMP_temperature;BMP_pressure;BME280_temperature;BME280_humidity;BME280_pressure;Samples;Min_cycle;Max_cycle;Signal;HPM_P1;HPM_P2
2024/01/10 00:01:55;;;;;;;8.90;5.13;;;;;;;;;;5056420;28;20020;-68
2024/01/10 00:04:20;;;;;;;12.05;5.45;;;;;;;;;;5043565;28;20809;-69
2024/01/10 00:06:45;;;;;;;8.95;5.28;;;;;;;;;;5044156;28;20126;-66
2024/01/10 00:09:11;;;;;;;12.02;5.65;;;;;;;;;;5042762;28;20036;-66
2024/01/10 00:11:36;;;;;;;17.15;5.55;;;;;;;;;;5043771;28;20028;-67
2024/01/10 00:14:03;;;;;;;10.60;5.22;;;;;;;;;;5091584;28;20028;-67
2024/01/10 00:16:28;;;;;;;7.63;4.53;;;;;;;;;;5090267;28;20024;-67
2024/01/10 00:18:53;;;;;;;13.13;5.40;;;;;;;;;;5091681;28;20024;-67
2024/01/10 00:21:19;;;;;;;11.73;6.13;;;;;;;;;;5091593;28;20024;-68
2024/01/10 00:23:44;;;;;;;10.15;5.18;;;;;;;;;;5091684;28;20032;-67
2024/01/10 00:26:09;;;;;;;14.32;6.32;;;;;;;;;;5077978;28;20028;-67
2024/01/10 00:28:34;;;;;;;8.32;5.00;;;;;;;;;;5091602;28;20028;-67
2024/01/10 00:31:00;;;;;;;11.43;5.90;;;;;;;;;;5091475;28;20477;-67
2024/01/10 00:33:25;;;;;;;14.95;6.03;;;;;;;;;;5079165;28;20024;-67
2024/01/10 00:35:50;;;;;;;11.82;5.82;;;;;;;;;;5090503;28;20035;-67
2024/01/10 00:38:15;;;;;;;12.38;5.80;;;;;;;;;;5091139;28;20032;-67
2024/01/10 00:40:41;;;;;;;13.45;6.70;;;;;;;;;;5090884;28;20032;-67
2024/01/10 00:43:06;;;;;;;13.70;6.68;;;;;;;;;;5090931;28;20036;-65
2024/01/10 00:45:31;;;;;;;10.80;6.00;;;;;;;;;;5090565;28;20454;-65
2024/01/10 00:47:57;;;;;;;13.27;5.93;;;;;;;;;;5090997;28;20066;-65
2024/01/10 00:50:22;;;;;;;14.13;6.03;;;;;;;;;;5090006;28;20016;-66
2024/01/10 00:52:48;;;;;;;12.00;5.95;;;;;;;;;;5091396;28;20024;-65
2024/01/10 00:55:13;;;;;;;11.52;5.22;;;;;;;;;;5090765;28;20024;-65
2024/01/10 00:57:38;;;;;;;11.90;5.95;;;;;;;;;;5093640;28;20028;-65
2024/01/10 01:00:13;;;;;;;13.60;6.35;;;;;;;;;;5093369;28;20021;-65
2024/01/10 01:02:41;;;;;;;18.05;6.72;;;;;;;;;;5094693;28;20024;-65
2024/01/10 01:05:09;;;;;;;13.00;5.80;;;;;;;;;;5094217;28;20063;-65
2024/01/10 01:07:35;;;;;;;11.57;6.70;;;;;;;;;;5094158;28;20028;-65
2024/01/10 01:10:01;;;;;;;12.52;6.20;;;;;;;;;;5082204;28;20110;-65
2024/01/10 01:12:26;;;;;;;10.00;5.57;;;;;;;;;;5091957;28;20415;-65
2024/01/10 01:14:51;;;;;;;13.70;6.65;;;;;;;;;;5087240;28;20039;-65
2024/01/10 01:17:16;;;;;;;13.18;6.18;;;;;;;;;;5094245;28;20374;-65
2024/01/10 01:19:42;;;;;;;14.07;6.68;;;;;;;;;;5094501;28;20028;-65
2024/01/10 01:22:07;;;;;;;11.50;6.18;;;;;;;;;;5083552;28;20048;-65
2024/01/10 01:24:32;;;;;;;12.60;7.00;;;;;;;;;;5093782;28;20028;-65
2024/01/10 01:26:57;;;;;;;9.93;6.30;;;;;;;;;;5093263;28;20052;-66
2024/01/10 01:29:23;;;;;;;13.00;7.10;;;;;;;;;;5094287;28;20031;-65
2024/01/10 01:31:48;;;;;;;12.55;6.32;;;;;;;;;;5093107;28;20020;-65
2024/01/10 01:34:13;;;;;;;10.98;5.85;;;;;;;;;;5084937;28;20527;-65
2024/01/10 01:36:38;;;;;;;13.48;6.60;;;;;;;;;;5077463;28;20526;-65
2024/01/10 01:39:04;;;;;;;11.45;5.82;;;;;;;;;;5093947;28;20063;-65
2024/01/10 01:41:29;;;;;;;11.35;5.38;;;;;;;;;;5081620;28;20021;-65
2024/01/10 01:43:54;;;;;;;11.18;6.50;;;;;;;;;;5086049;28;20028;-66
2024/01/10 01:46:20;;;;;;;11.10;6.32;;;;;;;;;;5094312;28;20532;-66
2024/01/10 01:48:46;;;;;;;13.77;6.57;;;;;;;;;;5090978;28;20020;-66
2024/01/10 01:51:12;;;;;;;15.70;7.13;;;;;;;;;;5094338;28;20035;-66
2024/01/10 01:53:38;;;;;;;13.10;7.47;;;;;;;;;;5093394;28;20024;-66
2024/01/10 01:56:07;;;;;;;14.25;6.78;;;;;;;;;;5082453;28;20056;-66
2024/01/10 01:58:33;;;;;;;11.85;6.45;;;;;;;;;;5092844;28;20115;-66
2024/01/10 02:00:59;;;;;;;12.63;6.50;;;;;;;;;;5088843;28;20099;-65
2024/01/10 02:03:26;;;;;;;11.43;5.82;;;;;;;;;;5092003;28;20036;-65
2024/01/10 02:05:51;;;;;;;11.00;6.25;;;;;;;;;;5093547;28;20020;-65
2024/01/10 02:08:17;;;;;;;13.73;5.78;;;;;;;;;;5091552;28;20509;-66
2024/01/10 02:10:42;;;;;;;12.35;6.70;;;;;;;;;;5092893;28;20106;-66
2024/01/10 02:13:11;;;;;;;12.63;5.70;;;;;;;;;;5093154;28;20039;-66
2024/01/10 02:15:37;;;;;;;12.88;5.97;;;;;;;;;;5093345;28;20103;-66
2024/01/10 02:18:02;;;;;;;11.38;6.38;;;;;;;;;;5080832;28;20166;-66
2024/01/10 02:20:27;;;;;;;10.75;5.53;;;;;;;;;;5087654;28;20483;-66
2024/01/10 02:22:53;;;;;;;15.02;6.60;;;;;;;;;;5088407;28;20026;-66
2024/01/10 02:25:18;;;;;;;10.10;6.07;;;;;;;;;;5083015;28;20390;-65
2024/01/10 02:27:43;;;;;;;12.30;6.15;;;;;;;;;;5093282;28;20016;-65
2024/01/10 02:30:09;;;;;;;16.83;6.13;;;;;;;;;;5093354;28;20355;-65
2024/01/10 02:32:34;;;;;;;14.82;5.85;;;;;;;;;;5092405;28;20024;-65
2024/01/10 02:35:00;;;;;;;12.70;5.90;;;;;;;;;;5092300;28;20074;-65
2024/01/10 02:37:25;;;;;;;14.55;6.07;;;;;;;;;;5093194;28;20085;-65
2024/01/10 02:39:50;;;;;;;9.77;5.40;;;;;;;;;;5092954;28;20028;-65
2024/01/10 02:42:16;;;;;;;11.00;6.07;;;;;;;;;;5086886;28;20028;-65
2024/01/10 02:44:41;;;;;;;13.50;5.85;;;;;;;;;;5060145;28;20021;-65
2024/01/10 02:47:07;;;;;;;13.43;7.32;;;;;;;;;;5041613;28;20770;-65
2024/01/10 02:49:32;;;;;;;13.00;6.25;;;;;;;;;;5031384;28;20027;-65
2024/01/10 02:51:58;;;;;;;9.30;4.78;;;;;;;;;;5043965;28;20942;-65
2024/01/10 02:54:23;;;;;;;12.38;5.82;;;;;;;;;;5024557;28;20043;-65
2024/01/10 02:56:48;;;;;;;11.63;5.43;;;;;;;;;;5042860;28;20755;-65
2024/01/10 02:59:13;;;;;;;13.45;6.45;;;;;;;;;;5045733;28;20038;-65
2024/01/10 03:01:39;;;;;;;15.13;5.68;;;;;;;;;;5044108;28;20032;-66
2024/01/10 03:04:04;;;;;;;12.18;6.13;;;;;;;;;;5091214;28;20035;-66
2024/01/10 03:06:29;;;;;;;14.05;6.22;;;;;;;;;;5092446;28;20024;-65
2024/01/10 03:08:55;;;;;;;14.05;5.60;;;;;;;;;;5092852;28;20039;-65
2024/01/10 03:11:20;;;;;;;15.35;6.10;;;;;;;;;;5092597;28;20390;-64
2024/01/10 03:13:46;;;;;;;12.63;5.93;;;;;;;;;;5091481;28;20032;-65
2024/01/10 03:16:11;;;;;;;11.85;5.95;;;;;;;;;;5090966;28;20031;-66
2024/01/10 03:18:36;;;;;;;14.73;5.75;;;;;;;;;;5091514;28;20020;-65
2024/01/10 03:21:02;;;;;;;10.30;5.30;;;;;;;;;;5090852;28;20027;-65
2024/01/10 03:23:27;;;;;;;11.65;5.47;;;;;;;;;;5084536;28;20037;-65
2024/01/10 03:25:52;;;;;;;10.73;5.13;;;;;;;;;;5087085;28;20378;-64
2024/01/10 03:28:18;;;;;;;10.23;4.78;;;;;;;;;;5092682;28;20035;-65
2024/01/10 03:30:43;;;;;;;12.10;6.28;;;;;;;;;;5073569;28;20020;-65
2024/01/10 03:33:08;;;;;;;11.73;5.68;;;;;;;;;;5092667;28;20418;-65
2024/01/10 03:35:34;;;;;;;13.48;6.13;;;;;;;;;;5091786;28;20421;-64
2024/01/10 03:37:59;;;;;;;13.18;5.32;;;;;;;;;;5083065;28;20363;-64
2024/01/10 03:40:24;;;;;;;11.20;5.15;;;;;;;;;;5091461;28;20024;-64
2024/01/10 03:42:49;;;;;;;8.27;4.85;;;;;;;;;;5091899;28;20099;-65
2024/01/10 03:45:17;;;;;;;10.77;5.40;;;;;;;;;;5091514;28;20064;-64
2024/01/10 03:47:42;;;;;;;10.45;5.28;;;;;;;;;;5091838;28;20024;-65
2024/01/10 03:50:08;;;;;;;13.45;5.45;;;;;;;;;;5092025;28;20468;-64
2024/01/10 03:52:33;;;;;;;10.32;4.78;;;;;;;;;;5091990;28;20110;-64
2024/01/10 03:54:58;;;;;;;11.38;5.93;;;;;;;;;;5090899;28;20066;-64
2024/01/10 03:57:24;;;;;;;12.23;5.15;;;;;;;;;;5091759;28;20024;-64
2024/01/10 03:59:49;;;;;;;12.77;5.95;;;;;;;;;;5091865;28;20081;-64
2024/01/10 04:02:14;;;;;;;11.48;6.45;;;;;;;;;;5091502;28;20096;-64
2024/01/10 04:04:39;;;;;;;16.77;7.50;;;;;;;;;;5091690;28;20023;-66
2024/01/10 04:07:06;;;;;;;16.58;7.60;;;;;;;;;;5091448;28;20016;-66
2024/01/10 04:09:31;;;;;;;16.30;8.35;;;;;;;;;;5087916;28;20099;-66
2024/01/10 04:11:56;;;;;;;16.77;8.48;;;;;;;;;;5064665;28;20020;-66
2024/01/10 04:14:21;;;;;;;15.57;8.20;;;;;;;;;;5084898;28;20020;-66
2024/01/10 04:16:48;;;;;;;12.00;6.70;;;;;;;;;;5091216;28;20062;-66
2024/01/10 04:19:13;;;;;;;13.18;7.22;;;;;;;;;;5068110;28;20024;-66
2024/01/10 04:21:38;;;;;;;16.65;7.43;;;;;;;;;;5081975;28;20073;-66
2024/01/10 04:24:04;;;;;;;14.02;6.03;;;;;;;;;;5091393;28;20182;-64
2024/01/10 04:26:29;;;;;;;16.00;5.65;;;;;;;;;;5091914;28;20036;-65
2024/01/10 04:28:54;;;;;;;10.60;5.93;;;;;;;;;;5091247;28;20028;-64
2024/01/10 04:31:19;;;;;;;16.05;5.35;;;;;;;;;;5090599;28;20106;-66
2024/01/10 04:33:44;;;;;;;11.55;4.90;;;;;;;;;;5091059;28;20111;-64
2024/01/10 04:36:10;;;;;;;11.60;5.68;;;;;;;;;;5091648;28;20043;-66
2024/01/10 04:38:35;;;;;;;10.10;4.72;;;;;;;;;;5091226;28;20069;-67
2024/01/10 04:41:00;;;;;;;8.32;4.25;;;;;;;;;;5091268;28;20020;-66
2024/01/10 04:43:25;;;;;;;11.40;4.93;;;;;;;;;;5090563;28;20039;-66
2024/01/10 04:45:51;;;;;;;10.40;5.65;;;;;;;;;;5082082;28;20078;-67
2024/01/10 04:48:16;;;;;;;12.70;6.07;;;;;;;;;;5079754;28;20016;-64
2024/01/10 04:50:41;;;;;;;11.95;6.18;;;;;;;;;;5089440;28;20020;-65
2024/01/10 04:53:06;;;;;;;10.00;5.03;;;;;;;;;;5090423;28;20024;-65
2024/01/10 04:55:31;;;;;;;8.90;4.75;;;;;;;;;;5089364;28;20048;-63
2024/01/10 04:57:57;;;;;;;11.48;5.72;;;;;;;;;;5089468;28;20032;-64
2024/01/10 05:00:22;;;;;;;11.73;4.38;;;;;;;;;;5089770;28;20326;-65
2024/01/10 05:02:47;;;;;;;7.45;4.13;;;;;;;;;;5091554;28;20020;-64
2024/01/10 05:05:13;;;;;;;8.55;4.53;;;;;;;;;;5088422;28;20058;-64
2024/01/10 05:07:38;;;;;;;7.88;3.92;;;;;;;;;;5090744;28;20474;-65
2024/01/10 05:10:04;;;;;;;11.88;4.07;;;;;;;;;;5090465;28;20111;-65
2024/01/10 05:12:29;;;;;;;13.90;4.95;;;;;;;;;;5091774;28;20099;-64
2024/01/10 05:14:54;;;;;;;9.07;5.05;;;;;;;;;;5089665;28;20103;-66
2024/01/10 05:17:19;;;;;;;13.40;5.75;;;;;;;;;;5067032;28;20683;-66
2024/01/10 05:19:45;;;;;;;11.05;5.85;;;;;;;;;;5090084;28;20432;-63
2024/01/10 05:22:11;;;;;;;12.90;5.72;;;;;;;;;;5091333;28;20470;-63
2024/01/10 05:24:36;;;;;;;10.10;5.05;;;;;;;;;;5089941;28;20035;-64
2024/01/10 05:27:01;;;;;;;12.52;4.90;;;;;;;;;;5090575;28;20059;-64
2024/01/10 05:29:27;;;;;;;10.75;4.32;;;;;;;;;;5089240;28;20052;-62
2024/01/10 05:31:52;;;;;;;7.65;4.63;;;;;;;;;;5090941;28;20049;-65
2024/01/10 05:34:18;;;;;;;12.45;5.28;;;;;;;;;;5090024;28;20115;-65
2024/01/10 05:36:43;;;;;;;10.18;4.72;;;;;;;;;;5090790;28;20431;-65
2024/01/10 05:39:08;;;;;;;16.73;5.40;;;;;;;;;;5090166;28;20397;-65
2024/01/10 05:41:34;;;;;;;8.70;4.40;;;;;;;;;;5090509;28;20589;-64
2024/01/10 05:43:59;;;;;;;11.60;5.25;;;;;;;;;;5092522;28;20130;-65
2024/01/10 05:46:24;;;;;;;15.32;6.13;;;;;;;;;;5092541;28;20055;-65
2024/01/10 05:48:49;;;;;;;8.63;4.43;;;;;;;;;;5094096;28;20097;-65
2024/01/10 05:51:15;;;;;;;9.38;5.38;;;;;;;;;;5093122;28;20535;-65
2024/01/10 05:53:40;;;;;;;14.85;5.38;;;;;;;;;;5094073;28;20032;-65
2024/01/10 05:56:06;;;;;;;17.23;5.75;;;;;;;;;;5093266;28;20036;-65
2024/01/10 05:58:31;;;;;;;11.77;5.32;;;;;;;;;;5093300;28;20031;-65
2024/01/10 06:00:56;;;;;;;12.05;5.07;;;;;;;;;;5093373;28;20108;-65
2024/01/10 06:03:22;;;;;;;8.30;4.72;;;;;;;;;;5093661;28;20108;-64
2024/01/10 06:05:47;;;;;;;9.88;4.57;;;;;;;;;;5092578;28;20106;-65
2024/01/10 06:08:14;;;;;;;12.40;5.10;;;;;;;;;;5093555;28;20024;-64
2024/01/10 06:10:39;;;;;;;8.70;4.38;;;;;;;;;;5093089;28;20085;-65
2024/01/10 06:13:04;;;;;;;10.02;5.53;;;;;;;;;;5092929;28;20454;-64
2024/01/10 06:15:29;;;;;;;8.85;4.40;;;;;;;;;;5093813;28;20462;-64
2024/01/10 06:17:54;;;;;;;12.43;5.75;;;;;;;;;;5086316;28;20528;-65
2024/01/10 06:20:20;;;;;;;10.48;5.47;;;;;;;;;;5090517;28;20474;-64
2024/01/10 06:22:46;;;;;;;10.85;4.63;;;;;;;;;;5093046;28;20036;-64
2024/01/10 06:25:11;;;;;;;13.45;5.65;;;;;;;;;;5093630;28;20028;-65
2024/01/10 06:27:37;;;;;;;9.27;4.82;;;;;;;;;;5088240;28;20516;-65
2024/01/10 06:30:02;;;;;;;8.40;4.53;;;;;;;;;;5093724;28;20019;-65
2024/01/10 06:32:28;;;;;;;13.23;4.85;;;;;;;;;;5045735;28;20754;-65
2024/01/10 06:34:53;;;;;;;8.52;4.38;;;;;;;;;;5043319;28;20035;-65
2024/01/10 06:37:18;;;;;;;10.50;4.32;;;;;;;;;;5042785;28;20024;-65
2024/01/10 06:39:44;;;;;;;14.30;4.78;;;;;;;;;;5034534;28;20024;-65
2024/01/10 06:42:11;;;;;;;12.55;5.45;;;;;;;;;;5023046;28;20131;-64
2024/01/10 06:44:37;;;;;;;10.85;5.38;;;;;;;;;;5036294;28;20118;-64
2024/01/10 06:47:02;;;;;;;8.95;4.28;;;;;;;;;;5045431;28;20027;-64
2024/01/10 06:49:28;;;;;;;9.32;5.07;;;;;;;;;;5043457;28;20399;-64
2024/01/10 06:51:53;;;;;;;8.68;5.10;;;;;;;;;;5043841;28;20089;-64
2024/01/10 06:54:19;;;;;;;12.18;4.95;;;;;;;;;;5044176;28;20035;-64
2024/01/10 06:56:44;;;;;;;10.63;4.82;;;;;;;;;;5044280;28;20892;-64
2024/01/10 06:59:09;;;;;;;8.50;4.93;;;;;;;;;;5036914;28;20820;-64
2024/01/10 07:01:35;;;;;;;9.82;5.28;;;;;;;;;;5040052;28;20098;-64
2024/01/10 07:04:00;;;;;;;9.30;4.72;;;;;;;;;;5043776;28;20083;-64
2024/01/10 07:06:25;;;;;;;11.05;5.43;;;;;;;;;;5045080;28;20181;-64
2024/01/10 07:08:50;;;;;;;12.48;4.68;;;;;;;;;;5074524;28;20185;-63
2024/01/10 07:11:16;;;;;;;9.48;4.97;;;;;;;;;;5091975;28;20035;-63
2024/01/10 07:13:42;;;;;;;10.32;4.65;;;;;;;;;;5092397;28;20020;-63
2024/01/10 07:16:08;;;;;;;8.75;4.78;;;;;;;;;;5091110;28;20028;-63
2024/01/10 07:18:33;;;;;;;19.00;5.55;;;;;;;;;;5092325;28;20028;-64
2024/01/10 07:20:59;;;;;;;9.75;4.95;;;;;;;;;;5084657;28;20027;-64
2024/01/10 07:23:24;;;;;;;10.75;4.93;;;;;;;;;;5092503;28;20107;-64
2024/01/10 07:25:49;;;;;;;9.70;4.72;;;;;;;;;;5091241;28;20077;-63
2024/01/10 07:28:15;;;;;;;11.65;5.15;;;;;;;;;;5093080;28;20040;-64
2024/01/10 07:30:40;;;;;;;8.32;4.30;;;;;;;;;;5092261;28;20024;-65
2024/01/10 07:33:06;;;;;;;11.48;4.70;;;;;;;;;;5091731;28;20122;-64
2024/01/10 07:35:31;;;;;;;10.50;5.40;;;;;;;;;;5066470;28;20032;-64
2024/01/10 07:37:57;;;;;;;10.75;4.85;;;;;;;;;;5044986;28;20139;-64
2024/01/10 07:40:25;;;;;;;7.93;4.60;;;;;;;;;;5044438;28;20027;-64
2024/01/10 07:42:50;;;;;;;8.95;4.55;;;;;;;;;;5044501;28;20837;-64
2024/01/10 07:45:16;;;;;;;10.68;5.28;;;;;;;;;;5037173;28;20055;-64
2024/01/10 07:47:41;;;;;;;9.77;4.85;;;;;;;;;;5043950;28;20028;-64
2024/01/10 07:50:07;;;;;;;13.05;5.45;;;;;;;;;;5051383;28;21085;-64
2024/01/10 07:52:32;;;;;;;10.10;4.45;;;;;;;;;;5045178;28;20035;-66
2024/01/10 07:54:58;;;;;;;10.68;4.75;;;;;;;;;;5043503;28;20082;-64
2024/01/10 07:57:23;;;;;;;10.60;4.38;;;;;;;;;;5042689;28;20782;-64
2024/01/10 07:59:48;;;;;;;10.70;4.25;;;;;;;;;;5041248;28;20105;-64
2024/01/10 08:02:13;;;;;;;12.05;5.70;;;;;;;;;;5047671;28;20032;-64
2024/01/10 08:04:39;;;;;;;10.00;4.35;;;;;;;;;;5047200;28;20020;-64
2024/01/10 08:07:04;;;;;;;9.90;5.13;;;;;;;;;;5046083;28;20043;-64
2024/01/10 08:09:29;;;;;;;9.77;3.78;;;;;;;;;;5045459;28;20020;-64
2024/01/10 08:11:54;;;;;;;9.25;5.00;;;;;;;;;;5046869;28;20051;-64
2024/01/10 08:14:20;;;;;;;8.38;4.80;;;;;;;;;;5044547;28;20034;-64
2024/01/10 08:16:45;;;;;;;11.52;5.15;;;;;;;;;;5026769;28;20034;-64
2024/01/10 08:19:11;;;;;;;8.85;4.80;;;;;;;;;;5045646;28;20889;-64
2024/01/10 08:21:36;;;;;;;10.82;4.65;;;;;;;;;;5042252;28;20416;-64
2024/01/10 08:24:02;;;;;;;11.20;5.75;;;;;;;;;;5044077;28;20818;-64
2024/01/10 08:26:28;;;;;;;10.45;4.38;;;;;;;;;;5041457;28;20061;-64
2024/01/10 08:28:53;;;;;;;9.65;4.78;;;;;;;;;;5014231;28;20087;-64
2024/01/10 08:31:18;;;;;;;10.00;4.13;;;;;;;;;;5045942;28;20143;-64
2024/01/10 08:33:44;;;;;;;7.47;4.47;;;;;;;;;;5044765;28;20020;-64
2024/01/10 08:36:10;;;;;;;12.95;5.10;;;;;;;;;;5043679;28;20034;-64
2024/01/10 08:38:35;;;;;;;16.23;6.28;;;;;;;;;;5044540;28;20016;-64
2024/01/10 08:41:01;;;;;;;11.35;5.65;;;;;;;;;;5044279;28;20016;-63
2024/01/10 08:43:26;;;;;;;13.90;5.25;;;;;;;;;;5043476;28;20050;-64
2024/01/10 08:45:51;;;;;;;11.40;4.93;;;;;;;;;;5044567;28;21019;-64
2024/01/10 08:48:17;;;;;;;10.35;5.07;;;;;;;;;;5045862;28;20884;-63
2024/01/10 08:50:42;;;;;;;8.55;4.43;;;;;;;;;;5046415;28;20016;-63
2024/01/10 08:53:08;;;;;;;11.00;5.15;;;;;;;;;;5045229;28;20020;-64
2024/01/10 08:55:34;;;;;;;8.65;4.85;;;;;;;;;;5042096;28;20144;-64
2024/01/10 08:57:59;;;;;;;16.40;5.75;;;;;;;;;;5037538;28;20545;-64
2024/01/10 09:00:24;;;;;;;10.02;5.50;;;;;;;;;;5042237;28;20817;-63
2024/01/10 09:02:49;;;;;;;23.77;6.22;;;;;;;;;;5044154;28;20035;-64
2024/01/10 09:05:15;;;;;;;10.15;4.93;;;;;;;;;;5043911;28;20082;-63
2024/01/10 09:07:42;;;;;;;11.43;5.47;;;;;;;;;;5047418;28;20024;-64
2024/01/10 09:10:07;;;;;;;8.85;4.72;;;;;;;;;;5036961;28;20088;-64
2024/01/10 09:12:32;;;;;;;10.93;5.00;;;;;;;;;;5034044;28;20833;-64
2024/01/10 09:14:58;;;;;;;12.52;5.97;;;;;;;;;;5043555;28;20059;-64
2024/01/10 09:17:23;;;;;;;13.50;5.80;;;;;;;;;;5045598;28;20032;-64
2024/01/10 09:19:48;;;;;;;11.52;5.60;;;;;;;;;;5065777;28;20020;-64
2024/01/10 09:22:14;;;;;;;16.60;5.93;;;;;;;;;;5077167;28;20028;-64
2024/01/10 09:24:39;;;;;;;11.15;5.38;;;;;;;;;;5078569;28;20027;-64
2024/01/10 09:27:04;;;;;;;13.60;4.95;;;;;;;;;;5083069;28;20072;-64
2024/01/10 09:29:31;;;;;;;11.07;5.65;;;;;;;;;;5086107;28;20055;-65
2024/01/10 09:31:56;;;;;;;10.65;5.53;;;;;;;;;;5086916;28;20028;-65
2024/01/10 09:34:22;;;;;;;9.95;6.07;;;;;;;;;;5085399;28;20393;-64
2024/01/10 09:36:47;;;;;;;12.45;5.40;;;;;;;;;;5077088;28;20028;-64
2024/01/10 09:39:13;;;;;;;10.52;5.55;;;;;;;;;;5080569;28;20124;-65
2024/01/10 09:41:46;;;;;;;11.20;5.28;;;;;;;;;;5063162;28;20991;-64
2024/01/10 09:44:11;;;;;;;8.70;3.63;;;;;;;;;;5046196;28;20020;-64
2024/01/10 09:46:38;;;;;;;11.30;5.95;;;;;;;;;;5046892;28;20106;-64
2024/01/10 09:49:03;;;;;;;12.80;5.97;;;;;;;;;;5045364;28;20020;-66
2024/01/10 09:51:29;;;;;;;10.57;5.07;;;;;;;;;;5045981;28;20246;-66
2024/01/10 09:53:55;;;;;;;13.15;6.57;;;;;;;;;;5040050;28;20032;-64
2024/01/10 09:56:21;;;;;;;12.23;5.65;;;;;;;;;;5042757;28;20136;-64
2024/01/10 09:58:48;;;;;;;10.43;5.53;;;;;;;;;;5046488;28;20025;-64
2024/01/10 10:01:13;;;;;;;18.42;6.07;;;;;;;;;;5045595;28;20039;-64
2024/01/10 10:03:40;;;;;;;10.55;5.57;;;;;;;;;;5046155;28;20020;-64
2024/01/10 10:06:07;;;;;;;12.27;5.57;;;;;;;;;;5045756;28;20860;-64
2024/01/10 10:08:32;;;;;;;11.27;5.97;;;;;;;;;;5044071;28;20078;-64
2024/01/10 10:10:58;;;;;;;11.93;6.30;;;;;;;;;;5046525;28;20085;-64
2024/01/10 10:13:25;;;;;;;15.43;6.68;;;;;;;;;;5047102;28;20024;-64
2024/01/10 10:16:00;;;;;;;11.68;5.57;;;;;;;;;;5045178;28;20035;-64
2024/01/10 10:18:26;;;;;;;13.63;6.50;;;;;;;;;;5046296;28;20036;-63
2024/01/10 10:21:09;;;;;;;10.00;5.47;;;;;;;;;;5046053;28;20068;-64
2024/01/10 10:23:35;;;;;;;11.10;6.13;;;;;;;;;;5045414;28;21003;-64
2024/01/10 10:26:09;;;;;;;15.20;7.00;;;;;;;;;;5045585;28;20078;-64
2024/01/10 10:28:34;;;;;;;14.25;6.78;;;;;;;;;;5045769;28;20020;-63
2024/01/10 10:31:00;;;;;;;11.35;5.85;;;;;;;;;;5046550;28;20253;-63
2024/01/10 10:33:25;;;;;;;10.77;6.20;;;;;;;;;;5045203;28;20869;-64
2024/01/10 10:35:50;;;;;;;12.00;5.50;;;;;;;;;;5045951;28;20119;-64
2024/01/10 10:38:15;;;;;;;12.23;6.43;;;;;;;;;;5046764;28;20115;-65
2024/01/10 10:40:41;;;;;;;10.85;6.80;;;;;;;;;;5036331;28;20127;-63
2024/01/10 10:43:09;;;;;;;10.95;6.78;;;;;;;;;;5042090;28;20030;-64
2024/01/10 10:45:35;;;;;;;12.23;6.50;;;;;;;;;;5044540;28;20925;-64
2024/01/10 10:48:01;;;;;;;13.30;6.85;;;;;;;;;;5046995;28;20047;-64
2024/01/10 10:50:28;;;;;;;12.77;6.32;;;;;;;;;;5045769;28;20033;-64
2024/01/10 10:52:55;;;;;;;17.23;6.57;;;;;;;;;;5040159;28;20910;-64
2024/01/10 10:55:20;;;;;;;13.80;6.78;;;;;;;;;;5046652;28;20132;-64
2024/01/10 10:57:46;;;;;;;11.70;6.78;;;;;;;;;;5044962;28;20029;-64
2024/01/10 11:00:15;;;;;;;13.85;6.80;;;;;;;;;;5045236;28;20131;-64
2024/01/10 11:02:41;;;;;;;13.15;7.13;;;;;;;;;;5045376;28;20020;-64
2024/01/10 11:05:07;;;;;;;12.00;6.38;;;;;;;;;;5039685;28;20020;-64
2024/01/10 11:07:35;;;;;;;16.90;7.57;;;;;;;;;;5042083;28;20079;-64
2024/01/10 11:10:00;;;;;;;10.82;6.55;;;;;;;;;;5044281;28;20024;-64
2024/01/10 11:12:44;;;;;;;14.38;6.30;;;;;;;;;;5054870;28;20016;-64
2024/01/10 11:15:24;;;;;;;15.48;6.68;;;;;;;;;;5044754;28;20929;-64
2024/01/10 11:17:50;;;;;;;13.68;6.90;;;;;;;;;;5045637;28;20135;-63
2024/01/10 11:20:19;;;;;;;13.65;6.45;;;;;;;;;;5039801;28;20043;-64
2024/01/10 11:22:50;;;;;;;12.90;6.72;;;;;;;;;;5040855;28;21552;-64
2024/01/10 11:25:15;;;;;;;13.50;6.45;;;;;;;;;;5045273;28;20914;-64
2024/01/10 11:27:42;;;;;;;16.15;6.93;;;;;;;;;;5044702;28;20028;-64
2024/01/10 11:30:08;;;;;;;14.32;7.88;;;;;;;;;;5045439;28;20862;-64
2024/01/10 11:32:35;;;;;;;12.18;6.13;;;;;;;;;;5043836;28;20039;-65
2024/01/10 11:35:04;;;;;;;15.23;7.57;;;;;;;;;;5044861;28;20030;-64
2024/01/10 11:37:40;;;;;;;14.02;6.97;;;;;;;;;;5034881;28;20032;-64
2024/01/10 11:40:07;;;;;;;15.52;6.72;;;;;;;;;;5043978;28;20023;-64
2024/01/10 11:42:45;;;;;;;19.13;7.30;;;;;;;;;;5044541;28;20838;-64
2024/01/10 11:45:31;;;;;;;11.63;5.88;;;;;;;;;;5041699;28;20021;-64
2024/01/10 11:47:59;;;;;;;16.23;7.45;;;;;;;;;;5043081;28;20253;-64
2024/01/10 11:50:26;;;;;;;16.23;7.18;;;;;;;;;;5046246;28;20221;-64
2024/01/10 11:52:54;;;;;;;15.23;7.97;;;;;;;;;;5044138;28;20039;-64
2024/01/10 11:55:38;;;;;;;12.85;6.18;;;;;;;;;;5044055;28;20024;-64
2024/01/10 11:58:07;;;;;;;16.75;7.35;;;;;;;;;;5042945;28;20035;-64
2024/01/10 12:00:32;;;;;;;16.10;8.00;;;;;;;;;;5043244;28;20028;-64
2024/01/10 12:02:58;;;;;;;16.20;7.28;;;;;;;;;;5043959;28;20052;-67
2024/01/10 12:05:23;;;;;;;13.45;7.75;;;;;;;;;;5041449;28;20855;-64
2024/01/10 12:07:50;;;;;;;13.93;6.47;;;;;;;;;;5042574;28;20031;-64
2024/01/10 12:10:16;;;;;;;20.50;7.85;;;;;;;;;;5043985;28;20065;-64
2024/01/10 12:12:41;;;;;;;13.82;6.75;;;;;;;;;;5040613;28;20020;-64
2024/01/10 12:15:07;;;;;;;11.45;6.80;;;;;;;;;;5044108;28;20514;-64
2024/01/10 12:17:32;;;;;;;15.38;7.63;;;;;;;;;;5042650;28;20032;-64
2024/01/10 12:19:57;;;;;;;16.35;6.88;;;;;;;;;;5043972;28;20019;-64
2024/01/10 12:22:23;;;;;;;14.52;7.22;;;;;;;;;;5040266;28;20052;-64
2024/01/10 12:24:48;;;;;;;17.60;7.95;;;;;;;;;;5041785;28;20032;-64
2024/01/10 12:27:15;;;;;;;12.25;6.65;;;;;;;;;;5040938;28;20883;-64
2024/01/10 12:29:41;;;;;;;20.27;8.32;;;;;;;;;;5040523;28;20033;-64
2024/01/10 12:32:07;;;;;;;18.02;7.35;;;;;;;;;;5031909;28;20947;-64
2024/01/10 12:34:32;;;;;;;12.68;7.07;;;;;;;;;;5044475;28;20820;-64
2024/01/10 12:36:58;;;;;;;14.70;7.68;;;;;;;;;;5044758;28;20071;-64
2024/01/10 12:39:23;;;;;;;16.40;6.65;;;;;;;;;;5025751;28;20036;-64
2024/01/10 12:41:50;;;;;;;14.02;7.55;;;;;;;;;;5045043;28;20043;-64
2024/01/10 12:44:15;;;;;;;18.27;8.27;;;;;;;;;;5044624;28;20028;-64
2024/01/10 12:46:53;;;;;;;15.55;8.00;;;;;;;;;;5046201;28;20027;-64
2024/01/10 12:49:18;;;;;;;14.68;8.60;;;;;;;;;;5043696;28;20125;-64
2024/01/10 12:51:43;;;;;;;16.63;7.53;;;;;;;;;;5043609;28;20893;-64
2024/01/10 12:54:09;;;;;;;14.75;7.53;;;;;;;;;;5050463;28;20024;-64
2024/01/10 12:56:35;;;;;;;15.63;7.65;;;;;;;;;;5038705;28;20926;-64
2024/01/10 12:59:00;;;;;;;11.60;6.90;;;;;;;;;;5046654;28;20350;-64
2024/01/10 13:01:25;;;;;;;16.95;7.38;;;;;;;;;;5046911;28;20182;-64
2024/01/10 13:03:51;;;;;;;26.33;8.68;;;;;;;;;;5044262;28;20114;-64
2024/01/10 13:06:18;;;;;;;18.90;8.02;;;;;;;;;;5045554;28;20025;-65
2024/01/10 13:08:43;;;;;;;17.33;7.75;;;;;;;;;;5043771;28;20940;-65
2024/01/10 13:11:09;;;;;;;11.40;7.25;;;;;;;;;;5042818;28;20088;-65
2024/01/10 13:13:38;;;;;;;18.23;8.23;;;;;;;;;;5046743;28;20952;-65
2024/01/10 13:16:03;;;;;;;16.98;8.18;;;;;;;;;;5045606;28;20908;-65
2024/01/10 13:18:29;;;;;;;20.85;7.85;;;;;;;;;;5047196;28;20064;-66
2024/01/10 13:20:54;;;;;;;16.15;7.78;;;;;;;;;;5038991;28;20032;-66
2024/01/10 13:23:22;;;;;;;13.63;7.45;;;;;;;;;;5048519;28;20947;-66
2024/01/10 13:25:48;;;;;;;21.13;8.73;;;;;;;;;;5036821;28;20424;-66
2024/01/10 13:28:14;;;;;;;19.90;8.93;;;;;;;;;;5045968;28;20020;-66
2024/01/10 13:30:41;;;;;;;18.23;7.85;;;;;;;;;;5047567;28;20028;-66
2024/01/10 13:33:06;;;;;;;16.00;8.55;;;;;;;;;;5046340;28;20025;-65
2024/01/10 13:35:32;;;;;;;15.98;8.13;;;;;;;;;;5042539;28;20814;-65
2024/01/10 13:37:57;;;;;;;15.52;8.10;;;;;;;;;;5060460;28;20069;-65
2024/01/10 13:40:24;;;;;;;21.05;8.98;;;;;;;;;;5047599;28;20076;-65
2024/01/10 13:42:50;;;;;;;15.25;7.70;;;;;;;;;;5021751;28;20734;-65
2024/01/10 13:45:17;;;;;;;17.30;7.95;;;;;;;;;;5045132;28;20059;-65
2024/01/10 13:47:42;;;;;;;15.70;8.55;;;;;;;;;;5047478;28;20862;-65
2024/01/10 13:50:08;;;;;;;18.42;8.05;;;;;;;;;;5046657;28;20034;-65
2024/01/10 13:52:34;;;;;;;13.10;8.10;;;;;;;;;;5047977;28;20089;-65
2024/01/10 13:54:59;;;;;;;17.02;8.55;;;;;;;;;;5047183;28;20034;-65
2024/01/10 13:57:25;;;;;;;14.40;7.65;;;;;;;;;;5047714;28;20036;-65
2024/01/10 13:59:50;;;;;;;17.23;7.63;;;;;;;;;;5046944;28;20807;-65
2024/01/10 14:02:15;;;;;;;13.63;7.70;;;;;;;;;;5036091;28;20035;-66
2024/01/10 14:04:41;;;;;;;16.58;8.10;;;;;;;;;;5045712;28;20123;-66
2024/01/10 14:07:06;;;;;;;16.23;8.10;;;;;;;;;;5045506;28;20826;-66
2024/01/10 14:09:32;;;;;;;18.20;7.87;;;;;;;;;;5045291;28;20020;-66
2024/01/10 14:11:57;;;;;;;16.45;8.32;;;;;;;;;;5044347;28;20323;-66
2024/01/10 14:14:22;;;;;;;20.13;8.20;;;;;;;;;;5047638;28;20932;-67
2024/01/10 14:16:48;;;;;;;15.43;8.27;;;;;;;;;;5024662;28;20066;-66
2024/01/10 14:19:13;;;;;;;12.85;7.15;;;;;;;;;;5040766;28;20124;-66
2024/01/10 14:21:38;;;;;;;18.83;8.30;;;;;;;;;;5047223;28;20929;-66
2024/01/10 14:24:04;;;;;;;19.75;8.48;;;;;;;;;;5049449;28;20141;-66